createdAt,value
2022-08-24T00:04:23.752Z,12.73
2022-08-24T00:09:27.911Z,12.15
2022-08-24T00:14:33.397Z,14.30
2022-08-24T00:19:37.139Z,14.30
2022-08-24T00:24:41.613Z,13.77
2022-08-24T00:29:46.728Z,15.43
2022-08-24T00:34:58.930Z,14.32
2022-08-24T00:40:03.730Z,15.30
2022-08-24T00:45:12.111Z,15.32
2022-08-24T00:50:20.419Z,14.43
2022-08-24T00:55:30.483Z,13.57
2022-08-24T01:00:42.936Z,13.93
2022-08-24T01:05:52.561Z,12.98
2022-08-24T01:11:02.566Z,13.75
2022-08-24T01:16:09.687Z,15.35
2022-08-24T01:21:19.066Z,12.80
2022-08-24T01:26:29.235Z,13.93
2022-08-24T01:31:34.650Z,13.35
2022-08-24T01:36:40.258Z,13.35
2022-08-24T01:41:45.428Z,14.40
2022-08-24T01:46:53.718Z,13.75
2022-08-24T01:51:58.743Z,14.45
2022-08-24T01:57:04.602Z,13.40
2022-08-24T02:02:15.375Z,13.82
2022-08-24T02:07:19.680Z,14.45
2022-08-24T02:12:24.999Z,13.85
2022-08-24T02:17:29.148Z,13.50
2022-08-24T02:22:32.966Z,14.10
2022-08-24T02:27:38.199Z,15.07
2022-08-24T02:32:42.010Z,14.52
2022-08-24T02:37:45.865Z,13.32
2022-08-24T02:42:51.488Z,13.70
2022-08-24T02:47:55.328Z,13.52
2022-08-24T02:52:59.535Z,13.70
2022-08-24T02:58:04.819Z,13.35
2022-08-24T03:03:10.205Z,13.07
2022-08-24T03:08:14.174Z,14.82
2022-08-24T03:13:19.881Z,14.07
2022-08-24T03:18:25.796Z,13.62
2022-08-24T03:23:31.988Z,14.10
2022-08-24T03:33:43.763Z,14.15
2022-08-24T03:38:47.872Z,14.38
2022-08-24T03:43:56.037Z,13.38
2022-08-24T03:49:00.574Z,13.93
2022-08-24T03:54:07.450Z,13.88
2022-08-24T03:59:12.724Z,13.60
2022-08-24T04:04:16.836Z,13.50
2022-08-24T04:09:20.568Z,12.63
2022-08-24T04:14:27.694Z,14.65
2022-08-24T04:19:32.474Z,14.90
2022-08-24T04:24:36.631Z,15.63
2022-08-24T04:29:41.687Z,14.50
2022-08-24T04:34:47.028Z,14.32
2022-08-24T04:39:51.390Z,13.95
2022-08-24T04:44:57.654Z,14.00
2022-08-24T04:50:01.466Z,13.27
2022-08-24T04:55:07.680Z,14.32
2022-08-24T05:00:14.340Z,15.02
2022-08-24T05:05:18.961Z,17.12
2022-08-24T05:10:23.137Z,17.37
2022-08-24T05:15:28.407Z,17.15
2022-08-24T05:20:32.255Z,17.52
2022-08-24T05:25:36.504Z,16.05
2022-08-24T05:30:42.867Z,16.30
2022-08-24T05:35:47.671Z,18.73
2022-08-24T05:40:51.898Z,17.87
2022-08-24T05:45:59.472Z,18.55
2022-08-24T05:51:03.323Z,19.48
2022-08-24T05:56:09.647Z,21.33
2022-08-24T06:01:17.859Z,21.45
2022-08-24T06:06:23.394Z,25.45
2022-08-24T06:11:31.839Z,21.42
2022-08-24T06:16:38.715Z,22.23
2022-08-24T06:21:46.785Z,23.58
2022-08-24T06:27:20.244Z,20.92
2022-08-24T06:32:25.858Z,25.17
2022-08-24T06:37:29.838Z,20.80
2022-08-24T06:42:34.382Z,20.80
2022-08-24T06:47:39.891Z,26.55
2022-08-24T06:52:44.037Z,23.92
2022-08-24T06:57:52.332Z,21.15
2022-08-24T07:02:58.156Z,25.17
2022-08-24T07:08:03.603Z,23.00
2022-08-24T07:13:07.686Z,22.33
2022-08-24T07:18:14.897Z,20.62
2022-08-24T07:23:20.684Z,21.00
2022-08-24T07:28:31.571Z,19.90
2022-08-24T07:33:38.588Z,16.45
2022-08-24T07:38:42.747Z,13.43
2022-08-24T07:43:47.586Z,12.40
2022-08-24T07:49:00.201Z,12.23
2022-08-24T07:54:16.367Z,12.40
2022-08-24T07:59:20.423Z,15.15
2022-08-24T08:04:28.207Z,13.98
2022-08-24T08:09:32.528Z,13.48
2022-08-24T08:14:37.485Z,13.05
2022-08-24T08:19:43.887Z,8.15
2022-08-24T08:24:47.983Z,9.05
2022-08-24T08:29:52.622Z,9.75
2022-08-24T08:35:01.592Z,6.55
2022-08-24T08:40:12.555Z,8.60
2022-08-24T08:45:31.905Z,6.60
2022-08-24T08:51:03.238Z,5.05
2022-08-24T08:56:14.674Z,4.62
2022-08-24T09:01:32.643Z,7.05
2022-08-24T09:06:56.566Z,6.22
2022-08-24T09:12:09.931Z,7.45
2022-08-24T09:17:29.579Z,5.97
2022-08-24T09:22:39.840Z,5.65
2022-08-24T09:28:08.251Z,5.50
2022-08-24T09:33:21.215Z,6.12
2022-08-24T09:38:42.788Z,5.20
2022-08-24T09:44:28.050Z,5.22
2022-08-24T09:50:12.559Z,3.65
2022-08-24T09:55:53.088Z,4.00
2022-08-24T10:01:09.783Z,3.65
2022-08-24T10:06:23.735Z,4.00
2022-08-24T10:11:37.372Z,2.90
2022-08-24T10:16:53.440Z,2.40
2022-08-24T10:22:04.362Z,3.67
2022-08-24T10:27:24.559Z,2.28
2022-08-24T10:32:54.374Z,2.95
2022-08-24T10:38:33.451Z,2.20
2022-08-24T10:44:06.151Z,2.62
2022-08-24T10:49:44.507Z,1.73
2022-08-24T10:54:48.725Z,1.20
2022-08-24T11:00:00.786Z,1.70
2022-08-24T11:05:09.599Z,1.40
2022-08-24T11:10:25.561Z,1.20
2022-08-24T11:15:31.736Z,1.12
2022-08-24T11:20:42.707Z,1.00
2022-08-24T11:25:56.151Z,1.10
2022-08-24T11:31:01.588Z,1.30
2022-08-24T11:36:20.931Z,1.40
2022-08-24T11:41:32.436Z,0.93
2022-08-24T11:46:46.876Z,0.90
2022-08-24T11:51:58.784Z,1.30
2022-08-24T11:57:10.510Z,1.23
2022-08-24T12:02:23.671Z,1.10
2022-08-24T12:07:42.907Z,1.25
2022-08-24T12:12:53.409Z,1.40
2022-08-24T12:18:05.081Z,1.40
2022-08-24T12:23:19.000Z,1.00
2022-08-24T12:28:28.925Z,1.23
2022-08-24T12:33:37.561Z,1.62
2022-08-24T12:38:47.195Z,1.30
2022-08-24T12:43:54.781Z,1.27
2022-08-24T12:49:04.144Z,1.40
2022-08-24T12:54:25.031Z,1.30
2022-08-24T12:59:31.842Z,1.45
2022-08-24T13:04:40.336Z,1.17
2022-08-24T13:09:48.448Z,1.40
2022-08-24T13:14:53.329Z,1.62
2022-08-24T13:20:19.472Z,1.50
2022-08-24T13:25:43.609Z,1.20
2022-08-24T13:30:59.146Z,1.10
2022-08-24T13:36:47.967Z,1.65
2022-08-24T13:42:10.110Z,1.05
2022-08-24T13:47:20.820Z,1.20
2022-08-24T13:52:38.556Z,1.30
2022-08-24T13:57:46.671Z,1.60
2022-08-24T14:03:03.179Z,1.00
2022-08-24T14:08:26.586Z,1.10
2022-08-24T14:13:47.931Z,1.20
2022-08-24T14:19:08.027Z,1.20
2022-08-24T14:24:25.077Z,1.25
2022-08-24T14:29:49.247Z,1.48
2022-08-24T14:35:04.062Z,1.35
2022-08-24T14:40:17.456Z,1.80
2022-08-24T14:45:27.764Z,1.20
2022-08-24T14:50:39.311Z,1.30
2022-08-24T14:55:54.512Z,1.30
2022-08-24T15:01:25.918Z,1.40
2022-08-24T15:06:37.957Z,1.10
2022-08-24T15:11:42.617Z,1.20
2022-08-24T15:16:54.313Z,1.37
2022-08-24T15:22:03.867Z,2.15
2022-08-24T15:27:15.959Z,1.25
2022-08-24T15:32:28.030Z,1.73
2022-08-24T15:37:36.377Z,1.83
2022-08-24T15:42:40.229Z,1.25
2022-08-24T15:47:58.387Z,1.10
2022-08-24T15:53:04.988Z,1.48
2022-08-24T15:58:31.748Z,1.80
2022-08-24T16:08:59.504Z,1.40
2022-08-24T16:14:03.837Z,1.80
2022-08-24T16:19:21.712Z,1.40
2022-08-24T16:24:30.880Z,1.20
2022-08-24T16:29:46.116Z,1.30
2022-08-24T16:34:54.246Z,1.58
2022-08-24T16:39:58.052Z,1.40
2022-08-24T16:45:02.203Z,4.32
2022-08-24T16:50:08.379Z,4.50
2022-08-24T16:55:14.501Z,1.63
2022-08-24T17:00:21.986Z,1.48
2022-08-24T17:05:28.344Z,1.40
2022-08-24T17:10:34.987Z,1.40
2022-08-24T17:15:41.743Z,1.30
2022-08-24T17:20:47.744Z,1.48
2022-08-24T17:25:53.901Z,1.30
2022-08-24T17:30:57.819Z,1.20
2022-08-24T17:36:05.329Z,1.20
2022-08-24T17:41:09.272Z,1.30
2022-08-24T17:46:18.506Z,1.20
2022-08-24T17:51:23.659Z,1.30
2022-08-24T17:56:30.999Z,1.20
2022-08-24T18:01:34.853Z,1.40
2022-08-24T18:06:40.051Z,1.20
2022-08-24T18:11:43.873Z,1.12
2022-08-24T18:16:53.986Z,1.52
2022-08-24T18:22:01.016Z,1.50
2022-08-24T18:27:10.385Z,1.67
2022-08-24T18:32:15.004Z,1.45
2022-08-24T18:37:20.247Z,1.52
2022-08-24T18:42:26.370Z,1.50
2022-08-24T18:47:30.191Z,1.60
2022-08-24T18:52:35.971Z,1.77
2022-08-24T18:57:39.736Z,1.60
2022-08-24T19:02:43.815Z,1.33
2022-08-24T19:07:52.268Z,1.52
2022-08-24T19:12:58.954Z,1.75
2022-08-24T19:18:03.080Z,1.47
2022-08-24T19:23:14.076Z,1.48
2022-08-24T19:28:18.322Z,1.40
2022-08-24T19:33:25.787Z,1.48
2022-08-24T19:38:31.082Z,1.60
2022-08-24T19:43:35.360Z,1.40
2022-08-24T19:48:40.616Z,1.90
2022-08-24T19:53:45.807Z,1.75
2022-08-24T19:58:53.426Z,2.10
2022-08-24T20:03:57.216Z,2.40
2022-08-24T20:09:04.021Z,2.45
2022-08-24T20:14:08.259Z,2.10
2022-08-24T20:19:13.007Z,2.17
2022-08-24T20:24:18.084Z,2.22
2022-08-24T20:29:21.838Z,2.42
2022-08-24T20:34:25.529Z,2.62
2022-08-24T20:39:30.638Z,2.45
2022-08-24T20:44:34.517Z,3.72
2022-08-24T20:49:38.410Z,3.10
2022-08-24T20:54:43.510Z,3.25
2022-08-24T20:59:47.664Z,3.12
2022-08-24T21:04:51.429Z,2.95
2022-08-24T21:09:57.384Z,2.83
2022-08-24T21:15:01.107Z,2.97
2022-08-24T21:20:05.604Z,3.15
2022-08-24T21:25:11.484Z,3.20
2022-08-24T21:30:18.030Z,3.12
2022-08-24T21:35:22.525Z,3.05
2022-08-24T21:40:28.917Z,3.17
2022-08-24T21:45:32.866Z,2.92
2022-08-24T21:50:36.629Z,2.80
2022-08-24T21:55:42.559Z,3.37
2022-08-24T22:00:46.305Z,3.20
2022-08-24T22:05:50.354Z,3.00
2022-08-24T22:10:55.464Z,3.12
2022-08-24T22:15:59.423Z,2.85
2022-08-24T22:21:07.091Z,3.22
2022-08-24T22:26:12.830Z,3.25
2022-08-24T22:31:19.554Z,3.12
2022-08-24T22:36:25.614Z,4.12
2022-08-24T22:41:30.895Z,3.30
2022-08-24T22:46:36.955Z,3.70
2022-08-24T22:51:41.752Z,3.60
2022-08-24T22:56:48.785Z,3.55
2022-08-24T23:01:54.475Z,3.40
2022-08-24T23:06:58.229Z,3.35
2022-08-24T23:12:03.614Z,3.87
2022-08-24T23:17:07.434Z,3.60
2022-08-24T23:22:13.355Z,4.45
2022-08-24T23:27:19.782Z,3.55
2022-08-24T23:32:23.927Z,4.03
2022-08-24T23:37:27.781Z,3.80
2022-08-24T23:42:32.895Z,4.47
2022-08-24T23:47:36.702Z,4.12
2022-08-24T23:52:41.356Z,4.60
2022-08-24T23:57:46.473Z,4.10
